Overseas Houston — WWAA — position and weather

sailwx.info

Track history (hours):
 
Tides and Currents Weather Stations Pressure Air Temp Water Temp Dewpoint Dewpoint Depression Visibility Wind Speed Wind Dir Waves Ship Positions

Overseas Houston

Owner: ASC Leasing I, Inc., Philadelphia, PA. More information available from US FCC via Universal Licensing System and Coast Guard Vessel Documentation Center.

Last reported at 2014-Nov-22 01:32 UTC. Time now 2014-Nov-23 22:24 UTC.
Position N 29°55' W 090°08'.

Type: Tanker. MMSI: 367109000.

Date/timePositionNaut miles runAvg speedWind from/ knotsBaromVisibWave heightAir tempDewpointWater temp
2014-Nov-22 01:32N 29°55' W 090°08'6 6.6
2014-Nov-22 00:33N 29°57' W 090°01'5 4.6
2014-Nov-21 23:29N 29°52' W 089°58'37112.7
2014-Nov-20 18:10N 27°36' W 083°25'1015.1
2014-Nov-20 17:29N 27°36' W 083°14'1415.0
2014-Nov-20 16:33N 27°36' W 082°58'1312.7
2014-Nov-20 15:33N 27°36' W 082°44'1212.4
2014-Nov-20 14:33N 27°43' W 082°32'8 8.3
2014-Nov-20 13:33N 27°52' W 082°33'0 0.2
2014-Nov-20 12:32N 27°52' W 082°33'0 0.0
2014-Nov-20 11:08N 27°52' W 082°33'0 0.0
2014-Nov-20 10:32N 27°52' W 082°33'0 0.0
2014-Nov-20 09:32N 27°52' W 082°33'0 0.0
2014-Nov-20 08:32N 27°52' W 082°33'0 0.0
2014-Nov-20 07:32N 27°52' W 082°33'0 0.0
2014-Nov-20 06:32N 27°52' W 082°33'0 0.0
2014-Nov-20 05:32N 27°52' W 082°33'0 0.0
2014-Nov-20 04:20N 27°52' W 082°33'0 0.0
2014-Nov-20 03:26N 27°52' W 082°33'0 0.0
2014-Nov-20 01:29N 27°52' W 082°33'0 0.0
2014-Nov-20 00:32N 27°52' W 082°33'0 0.0
2014-Nov-19 23:32N 27°52' W 082°33'0 0.1
2014-Nov-19 22:33N 27°52' W 082°33'0 0.0
2014-Nov-19 21:30N 27°52' W 082°33'0 0.0
2014-Nov-19 20:29N 27°52' W 082°33'0 0.0
2014-Nov-19 19:32N 27°52' W 082°33'0 0.0
2014-Nov-19 18:32N 27°52' W 082°33'0 0.0
2014-Nov-19 17:32N 27°52' W 082°33'0 0.0
2014-Nov-19 16:32N 27°52' W 082°33'0 0.0
2014-Nov-19 15:26N 27°52' W 082°33'0 0.0
2014-Nov-19 14:32N 27°52' W 082°33'0 0.0
2014-Nov-19 13:32N 27°52' W 082°33'0 0.0
2014-Nov-19 12:32N 27°52' W 082°33'0 0.0
2014-Nov-19 11:32N 27°52' W 082°33'0 0.0
2014-Nov-19 10:29N 27°52' W 082°33'0 0.0
2014-Nov-19 09:32N 27°52' W 082°33'0 0.0
2014-Nov-19 08:32N 27°52' W 082°33'0 0.0
2014-Nov-19 07:32N 27°52' W 082°33'0 0.0
2014-Nov-19 06:32N 27°52' W 082°33'0 0.0
2014-Nov-19 05:32N 27°52' W 082°33'0 0.0
2014-Nov-19 04:32N 27°52' W 082°33'0 0.0
2014-Nov-19 03:32N 27°52' W 082°33'0 0.0
2014-Nov-19 02:32N 27°52' W 082°33'0 0.0
2014-Nov-19 01:32N 27°52' W 082°33'0 0.0
2014-Nov-19 00:32N 27°52' W 082°33'0 0.1
2014-Nov-18 23:33N 27°52' W 082°33'4 4.1
2014-Nov-18 22:33N 27°48' W 082°34'9 8.8
2014-Nov-18 21:33N 27°53' W 082°26'2 1.9
2014-Nov-18 20:32N 27°55' W 082°27'0 0.0
2014-Nov-18 19:32N 27°55' W 082°27'0 0.0
2014-Nov-18 18:29N 27°55' W 082°27'0 0.0
2014-Nov-18 17:32N 27°55' W 082°27'0 0.0
2014-Nov-18 16:32N 27°55' W 082°27'0 0.0
2014-Nov-18 15:32N 27°55' W 082°27'0 0.0
2014-Nov-18 14:32N 27°55' W 082°27'0 0.0
2014-Nov-18 13:32N 27°55' W 082°27'0 0.0
2014-Nov-18 12:32N 27°55' W 082°27'0 0.0
2014-Nov-18 11:32N 27°55' W 082°27'0 0.0
2014-Nov-18 10:32N 27°55' W 082°27'0 0.0
2014-Nov-18 09:32N 27°55' W 082°27'0 0.2
2014-Nov-18 08:33N 27°55' W 082°27'7 6.7
2014-Nov-18 07:33N 27°48' W 082°28'1010.4
2014-Nov-18 06:33N 27°41' W 082°35'1110.5
2014-Nov-18 05:33N 27°37' W 082°46'1211.6
2014-Nov-18 04:33N 27°35' W 082°59'39112.2
2014-Nov-16 20:31N 29°52' W 089°57'7 7.5
2014-Nov-16 19:32N 29°58' W 090°03'9 0.2
2014-Nov-15 00:12N 29°55' W 090°13'5 7.9
2014-Nov-14 23:32N 29°54' W 090°07'9 9.0
2014-Nov-14 22:32N 29°55' W 089°56'36811.9
2014-Nov-13 15:32N 27°36' W 083°27'1515.3
2014-Nov-13 14:34N 27°36' W 083°10'1514.8
2014-Nov-13 13:33N 27°36' W 082°54'1414.3
2014-Nov-13 12:33N 27°38' W 082°38'10 9.9
2014-Nov-13 11:33N 27°48' W 082°34'4 4.3
2014-Nov-13 10:33N 27°52' W 082°33'0 0.0
2014-Nov-13 09:33N 27°52' W 082°33'0 0.0
2014-Nov-13 08:33N 27°52' W 082°33'0 0.0
2014-Nov-13 07:33N 27°52' W 082°33'0 0.0
2014-Nov-13 06:33N 27°52' W 082°33'0 0.0
2014-Nov-13 05:33N 27°52' W 082°33'0 0.0
2014-Nov-13 04:33N 27°52' W 082°33'0 0.0
2014-Nov-13 03:33N 27°52' W 082°33'0 0.0
2014-Nov-13 02:33N 27°52' W 082°33'0 0.0
2014-Nov-13 01:33N 27°52' W 082°33'0 0.0
2014-Nov-13 00:33N 27°52' W 082°33'0 0.0
2014-Nov-12 23:33N 27°52' W 082°33'0 0.0
2014-Nov-12 22:30N 27°52' W 082°33'0 0.0
2014-Nov-12 21:33N 27°52' W 082°33'0 0.0
2014-Nov-12 20:33N 27°52' W 082°33'0 0.0
2014-Nov-12 19:32N 27°52' W 082°33'0 0.0
2014-Nov-12 18:32N 27°52' W 082°33'0 0.0
2014-Nov-12 17:32N 27°52' W 082°33'0 0.0
2014-Nov-12 16:32N 27°52' W 082°33'0 0.0
2014-Nov-12 15:32N 27°52' W 082°33'0 0.0
2014-Nov-12 14:32N 27°52' W 082°33'0 0.0
2014-Nov-12 13:26N 27°52' W 082°33'0 0.0
2014-Nov-12 12:32N 27°52' W 082°33'0 0.0
2014-Nov-12 11:32N 27°52' W 082°33'0 0.0
2014-Nov-12 10:26N 27°52' W 082°33'3 3.7
2014-Nov-12 09:33N 27°49' W 082°34'8 7.8
2014-Nov-12 08:33N 27°52' W 082°27'3 2.8
2014-Nov-12 07:31N 27°55' W 082°27'0 0.0
2014-Nov-12 06:31N 27°55' W 082°27'0 0.0
2014-Nov-12 05:31N 27°55' W 082°27'0 0.0
2014-Nov-12 04:31N 27°55' W 082°27'0 0.0
2014-Nov-12 03:31N 27°55' W 082°27'0 0.0
2014-Nov-12 02:31N 27°55' W 082°27'  
Track history (hours):
 
Tides and Currents Weather Stations Pressure Air Temp Water Temp Dewpoint Dewpoint Depression Visibility Wind Speed Wind Dir Waves Ship Positions

Overseas Houston

Owner: ASC Leasing I, Inc., Philadelphia, PA. More information available from US FCC via Universal Licensing System and Coast Guard Vessel Documentation Center.

Last reported at 2014-Nov-22 01:32 UTC. Time now 2014-Nov-23 22:24 UTC.
Position N 29°55' W 090°08'.

Type: Tanker. MMSI: 367109000.

Date/timePositionNaut miles runAvg speedWind from/ knotsBaromVisibWave heightAir tempDewpointWater temp
2014-Nov-22 01:32N 29°55' W 090°08'6 6.6
2014-Nov-22 00:33N 29°57' W 090°01'5 4.6
2014-Nov-21 23:29N 29°52' W 089°58'37112.7
2014-Nov-20 18:10N 27°36' W 083°25'1015.1
2014-Nov-20 17:29N 27°36' W 083°14'1415.0
2014-Nov-20 16:33N 27°36' W 082°58'1312.7
2014-Nov-20 15:33N 27°36' W 082°44'1212.4
2014-Nov-20 14:33N 27°43' W 082°32'8 8.3
2014-Nov-20 13:33N 27°52' W 082°33'0 0.2
2014-Nov-20 12:32N 27°52' W 082°33'0 0.0
2014-Nov-20 11:08N 27°52' W 082°33'0 0.0
2014-Nov-20 10:32N 27°52' W 082°33'0 0.0
2014-Nov-20 09:32N 27°52' W 082°33'0 0.0
2014-Nov-20 08:32N 27°52' W 082°33'0 0.0
2014-Nov-20 07:32N 27°52' W 082°33'0 0.0
2014-Nov-20 06:32N 27°52' W 082°33'0 0.0
2014-Nov-20 05:32N 27°52' W 082°33'0 0.0
2014-Nov-20 04:20N 27°52' W 082°33'0 0.0
2014-Nov-20 03:26N 27°52' W 082°33'0 0.0
2014-Nov-20 01:29N 27°52' W 082°33'0 0.0
2014-Nov-20 00:32N 27°52' W 082°33'0 0.0
2014-Nov-19 23:32N 27°52' W 082°33'0 0.1
2014-Nov-19 22:33N 27°52' W 082°33'0 0.0
2014-Nov-19 21:30N 27°52' W 082°33'0 0.0
2014-Nov-19 20:29N 27°52' W 082°33'0 0.0
2014-Nov-19 19:32N 27°52' W 082°33'0 0.0
2014-Nov-19 18:32N 27°52' W 082°33'0 0.0
2014-Nov-19 17:32N 27°52' W 082°33'0 0.0
2014-Nov-19 16:32N 27°52' W 082°33'0 0.0
2014-Nov-19 15:26N 27°52' W 082°33'0 0.0
2014-Nov-19 14:32N 27°52' W 082°33'0 0.0
2014-Nov-19 13:32N 27°52' W 082°33'0 0.0
2014-Nov-19 12:32N 27°52' W 082°33'0 0.0
2014-Nov-19 11:32N 27°52' W 082°33'0 0.0
2014-Nov-19 10:29N 27°52' W 082°33'0 0.0
2014-Nov-19 09:32N 27°52' W 082°33'0 0.0
2014-Nov-19 08:32N 27°52' W 082°33'0 0.0
2014-Nov-19 07:32N 27°52' W 082°33'0 0.0
2014-Nov-19 06:32N 27°52' W 082°33'0 0.0
2014-Nov-19 05:32N 27°52' W 082°33'0 0.0
2014-Nov-19 04:32N 27°52' W 082°33'0 0.0
2014-Nov-19 03:32N 27°52' W 082°33'0 0.0
2014-Nov-19 02:32N 27°52' W 082°33'0 0.0
2014-Nov-19 01:32N 27°52' W 082°33'0 0.0
2014-Nov-19 00:32N 27°52' W 082°33'0 0.1
2014-Nov-18 23:33N 27°52' W 082°33'4 4.1
2014-Nov-18 22:33N 27°48' W 082°34'9 8.8
2014-Nov-18 21:33N 27°53' W 082°26'2 1.9
2014-Nov-18 20:32N 27°55' W 082°27'0 0.0
2014-Nov-18 19:32N 27°55' W 082°27'0 0.0
2014-Nov-18 18:29N 27°55' W 082°27'0 0.0
2014-Nov-18 17:32N 27°55' W 082°27'0 0.0
2014-Nov-18 16:32N 27°55' W 082°27'0 0.0
2014-Nov-18 15:32N 27°55' W 082°27'0 0.0
2014-Nov-18 14:32N 27°55' W 082°27'0 0.0
2014-Nov-18 13:32N 27°55' W 082°27'0 0.0
2014-Nov-18 12:32N 27°55' W 082°27'0 0.0
2014-Nov-18 11:32N 27°55' W 082°27'0 0.0
2014-Nov-18 10:32N 27°55' W 082°27'0 0.0
2014-Nov-18 09:32N 27°55' W 082°27'0 0.2
2014-Nov-18 08:33N 27°55' W 082°27'7 6.7
2014-Nov-18 07:33N 27°48' W 082°28'1010.4
2014-Nov-18 06:33N 27°41' W 082°35'1110.5
2014-Nov-18 05:33N 27°37' W 082°46'1211.6
2014-Nov-18 04:33N 27°35' W 082°59'39112.2
2014-Nov-16 20:31N 29°52' W 089°57'7 7.5
2014-Nov-16 19:32N 29°58' W 090°03'9 0.2
2014-Nov-15 00:12N 29°55' W 090°13'5 7.9
2014-Nov-14 23:32N 29°54' W 090°07'9 9.0
2014-Nov-14 22:32N 29°55' W 089°56'36811.9
2014-Nov-13 15:32N 27°36' W 083°27'1515.3
2014-Nov-13 14:34N 27°36' W 083°10'1514.8
2014-Nov-13 13:33N 27°36' W 082°54'1414.3
2014-Nov-13 12:33N 27°38' W 082°38'10 9.9
2014-Nov-13 11:33N 27°48' W 082°34'4 4.3
2014-Nov-13 10:33N 27°52' W 082°33'0 0.0
2014-Nov-13 09:33N 27°52' W 082°33'0 0.0
2014-Nov-13 08:33N 27°52' W 082°33'0 0.0
2014-Nov-13 07:33N 27°52' W 082°33'0 0.0
2014-Nov-13 06:33N 27°52' W 082°33'0 0.0
2014-Nov-13 05:33N 27°52' W 082°33'0 0.0
2014-Nov-13 04:33N 27°52' W 082°33'0 0.0
2014-Nov-13 03:33N 27°52' W 082°33'0 0.0
2014-Nov-13 02:33N 27°52' W 082°33'0 0.0
2014-Nov-13 01:33N 27°52' W 082°33'0 0.0
2014-Nov-13 00:33N 27°52' W 082°33'0 0.0
2014-Nov-12 23:33N 27°52' W 082°33'0 0.0
2014-Nov-12 22:30N 27°52' W 082°33'0 0.0
2014-Nov-12 21:33N 27°52' W 082°33'0 0.0
2014-Nov-12 20:33N 27°52' W 082°33'0 0.0
2014-Nov-12 19:32N 27°52' W 082°33'0 0.0
2014-Nov-12 18:32N 27°52' W 082°33'0 0.0
2014-Nov-12 17:32N 27°52' W 082°33'0 0.0
2014-Nov-12 16:32N 27°52' W 082°33'0 0.0
2014-Nov-12 15:32N 27°52' W 082°33'0 0.0
2014-Nov-12 14:32N 27°52' W 082°33'0 0.0
2014-Nov-12 13:26N 27°52' W 082°33'0 0.0
2014-Nov-12 12:32N 27°52' W 082°33'0 0.0
2014-Nov-12 11:32N 27°52' W 082°33'0 0.0
2014-Nov-12 10:26N 27°52' W 082°33'3 3.7
2014-Nov-12 09:33N 27°49' W 082°34'8 7.8
2014-Nov-12 08:33N 27°52' W 082°27'3 2.8
2014-Nov-12 07:31N 27°55' W 082°27'0 0.0
2014-Nov-12 06:31N 27°55' W 082°27'0 0.0
2014-Nov-12 05:31N 27°55' W 082°27'0 0.0
2014-Nov-12 04:31N 27°55' W 082°27'0 0.0
2014-Nov-12 03:31N 27°55' W 082°27'0 0.0
2014-Nov-12 02:31N 27°55' W 082°27'  

Dump ship's entire track history